Time;durP1;ratioP1;P1;durP2;ratioP2;P2;SDS_P1;SDS_P2;PMS_P1;PMS_P2;Temp;Humidity;BMP_temperature;BMP_pressure;BME280_temperature;BME280_humidity;BME280_pressure;Samples;Min_cycle;Max_cycle;Signal;HPM_P1;HPM_P2
2021/10/09 00:02:24;;;;;;;35.83;27.80;;;11.30;99.90;;;;;;5108325;28;20036;-84
2021/10/09 00:04:49;;;;;;;36.95;27.95;;;11.30;99.90;;;;;;5073704;28;20044;-83
2021/10/09 00:07:15;;;;;;;37.20;27.58;;;11.20;99.90;;;;;;5057913;28;20083;-84
2021/10/09 00:09:43;;;;;;;36.85;27.13;;;11.20;99.90;;;;;;5105128;28;20581;-84
2021/10/09 00:12:09;;;;;;;38.28;27.60;;;11.20;99.90;;;;;;5058232;28;20124;-84
2021/10/09 00:14:34;;;;;;;33.15;26.25;;;11.20;99.90;;;;;;5057684;28;20089;-84
2021/10/09 00:17:00;;;;;;;36.33;27.10;;;11.20;99.90;;;;;;5073937;28;20035;-84
2021/10/09 00:19:25;;;;;;;35.33;26.80;;;11.20;99.90;;;;;;5074049;28;20032;-84
2021/10/09 00:21:51;;;;;;;37.83;27.77;;;11.20;99.90;;;;;;5073870;28;20050;-84
2021/10/09 00:24:19;;;;;;;35.42;27.58;;;11.20;99.90;;;;;;5090896;28;20039;-84
2021/10/09 00:26:46;;;;;;;40.72;28.65;;;11.20;99.90;;;;;;5090983;28;20032;-84
2021/10/09 00:29:12;;;;;;;36.92;26.92;;;11.20;99.90;;;;;;5107823;28;20044;-84
2021/10/09 00:31:38;;;;;;;35.33;27.27;;;11.20;99.90;;;;;;5137141;27;20043;-84
2021/10/09 00:34:04;;;;;;;35.80;27.63;;;11.10;99.90;;;;;;5091026;28;20126;-83
2021/10/09 00:36:30;;;;;;;35.97;28.55;;;11.10;99.90;;;;;;5090321;28;20035;-84
2021/10/09 00:38:56;;;;;;;37.50;28.48;;;11.10;99.90;;;;;;5090339;28;20035;-84
2021/10/09 00:41:23;;;;;;;36.80;28.00;;;11.10;99.90;;;;;;5107524;28;20390;-84
2021/10/09 00:43:49;;;;;;;36.03;28.30;;;11.10;99.90;;;;;;5107612;28;20479;-83
2021/10/09 00:46:15;;;;;;;37.25;27.08;;;11.10;99.90;;;;;;5073612;28;20044;-84
2021/10/09 00:48:42;;;;;;;36.28;28.73;;;11.10;99.90;;;;;;5090609;28;20403;-84
2021/10/09 00:51:08;;;;;;;38.53;29.02;;;11.10;99.90;;;;;;5106832;28;20503;-84
2021/10/09 00:53:37;;;;;;;37.25;28.73;;;11.10;99.90;;;;;;5090454;28;20053;-83
2021/10/09 00:56:05;;;;;;;35.85;28.23;;;11.10;99.90;;;;;;5106790;28;20059;-84
2021/10/09 00:58:32;;;;;;;36.58;27.85;;;11.10;99.90;;;;;;5109671;27;20039;-84
2021/10/09 01:00:57;;;;;;;36.10;28.13;;;11.00;99.90;;;;;;5073096;28;20065;-84
2021/10/09 01:03:24;;;;;;;37.65;27.63;;;11.00;99.90;;;;;;5070966;28;20044;-84
2021/10/09 01:05:50;;;;;;;34.47;27.58;;;11.00;99.90;;;;;;5123056;27;20118;-83
2021/10/09 01:08:15;;;;;;;36.40;28.00;;;11.00;99.90;;;;;;5090232;28;20122;-83
2021/10/09 01:10:41;;;;;;;35.60;27.50;;;11.00;99.90;;;;;;5070738;28;20471;-83
2021/10/09 01:13:07;;;;;;;36.25;28.02;;;11.00;99.90;;;;;;5106607;28;20035;-84
2021/10/09 01:15:34;;;;;;;36.95;27.55;;;11.00;99.90;;;;;;5090121;28;20042;-83
2021/10/09 01:18:12;;;;;;;35.63;28.20;;;10.90;99.90;;;;;;5073229;28;20035;-84
2021/10/09 01:20:51;;;;;;;36.60;27.35;;;10.90;99.90;;;;;;5090355;28;20116;-84
2021/10/09 01:23:18;;;;;;;39.28;27.90;;;10.90;99.90;;;;;;5090104;28;20039;-84
2021/10/09 01:25:45;;;;;;;39.88;28.95;;;10.90;99.90;;;;;;5119414;27;20048;-84
2021/10/09 01:28:11;;;;;;;36.53;28.23;;;10.90;99.90;;;;;;5072714;28;20130;-84
2021/10/09 01:30:37;;;;;;;40.60;28.95;;;10.80;99.90;;;;;;5089659;28;20174;-84
2021/10/09 01:33:03;;;;;;;39.58;29.40;;;10.80;99.90;;;;;;5106316;28;20056;-84
2021/10/09 01:35:29;;;;;;;35.30;27.83;;;10.80;99.90;;;;;;5103359;27;20035;-83
2021/10/09 01:37:55;;;;;;;35.58;28.23;;;10.80;99.90;;;;;;5089701;28;20035;-84
2021/10/09 01:40:21;;;;;;;39.00;29.50;;;10.80;99.90;;;;;;5089886;28;20477;-84
2021/10/09 01:42:47;;;;;;;38.40;29.10;;;10.80;99.90;;;;;;5089348;28;20036;-83
2021/10/09 01:45:12;;;;;;;37.47;28.77;;;10.80;99.90;;;;;;5089615;28;20031;-84
2021/10/09 01:47:40;;;;;;;40.35;29.55;;;10.80;99.90;;;;;;5073373;28;20045;-83
2021/10/09 01:50:06;;;;;;;39.03;28.58;;;10.80;99.90;;;;;;5106419;28;20079;-84
2021/10/09 01:52:32;;;;;;;39.45;30.05;;;10.80;99.90;;;;;;5114762;27;20044;-84
2021/10/09 01:54:58;;;;;;;39.80;30.23;;;10.80;99.90;;;;;;5056240;28;20023;-84
2021/10/09 01:57:23;;;;;;;40.17;29.52;;;10.80;99.90;;;;;;5052694;28;20109;-83
2021/10/09 01:59:49;;;;;;;43.88;29.38;;;10.80;99.90;;;;;;5089935;28;20058;-84
2021/10/09 02:02:15;;;;;;;39.90;29.17;;;10.80;99.90;;;;;;5089932;28;20038;-84
2021/10/09 02:04:40;;;;;;;40.13;29.88;;;10.80;99.90;;;;;;5089431;28;20486;-84
2021/10/09 02:07:08;;;;;;;39.25;29.75;;;10.80;99.90;;;;;;5089388;28;20411;-84
2021/10/09 02:09:34;;;;;;;40.60;29.35;;;10.80;99.90;;;;;;5089529;28;20080;-83
2021/10/09 02:12:00;;;;;;;46.97;31.35;;;10.80;99.90;;;;;;5089100;28;20039;-83
2021/10/09 02:25:46;;;;;;;43.30;30.70;;;10.70;99.90;;;;;;5095855;28;20097;-83
2021/10/09 02:28:19;;;;;;;37.42;28.63;;;10.70;99.90;;;;;;5076944;28;20044;-84
2021/10/09 02:30:46;;;;;;;43.35;30.05;;;10.70;99.90;;;;;;5093672;28;20534;-84
2021/10/09 02:33:12;;;;;;;37.70;29.85;;;10.70;99.90;;;;;;5110070;28;20072;-84
2021/10/09 02:35:38;;;;;;;39.30;29.90;;;10.70;99.90;;;;;;5075387;28;20143;-83
2021/10/09 02:38:05;;;;;;;43.92;31.00;;;10.70;99.90;;;;;;5109653;28;20039;-83
2021/10/09 02:40:31;;;;;;;41.58;30.15;;;10.70;99.90;;;;;;5096466;28;20082;-84
2021/10/09 02:42:57;;;;;;;42.75;30.65;;;10.70;99.90;;;;;;5114574;27;20032;-84
2021/10/09 02:45:22;;;;;;;45.28;29.27;;;10.70;99.90;;;;;;5076049;28;20364;-84
2021/10/09 02:47:48;;;;;;;40.55;29.58;;;10.70;99.90;;;;;;5092707;28;20050;-84
2021/10/09 02:50:14;;;;;;;41.83;30.25;;;10.70;99.90;;;;;;5076245;28;20390;-84
2021/10/09 02:52:43;;;;;;;41.95;29.70;;;10.70;99.90;;;;;;5092474;28;20473;-84
2021/10/09 02:55:10;;;;;;;43.28;30.60;;;10.70;99.90;;;;;;5092812;28;20032;-84
2021/10/09 02:57:37;;;;;;;43.67;31.50;;;10.70;99.90;;;;;;5072748;28;20513;-84
2021/10/09 03:00:05;;;;;;;43.70;32.08;;;10.70;99.90;;;;;;5109446;28;20067;-84
2021/10/09 03:02:31;;;;;;;48.60;32.67;;;10.70;99.90;;;;;;5093138;28;20082;-84
2021/10/09 03:04:56;;;;;;;40.53;30.05;;;10.70;99.90;;;;;;5097403;27;20067;-84
2021/10/09 03:07:22;;;;;;;41.13;30.05;;;10.70;99.90;;;;;;5074280;28;20040;-84
2021/10/09 03:09:48;;;;;;;46.83;33.20;;;10.70;99.90;;;;;;5091970;28;20043;-84
2021/10/09 03:12:13;;;;;;;42.58;30.55;;;10.70;99.90;;;;;;5092541;28;20047;-84
2021/10/09 03:14:39;;;;;;;40.33;30.02;;;10.60;99.90;;;;;;5073656;28;20089;-84
2021/10/09 03:17:05;;;;;;;42.30;30.48;;;10.60;99.90;;;;;;5073761;28;20415;-84
2021/10/09 03:19:30;;;;;;;40.40;28.85;;;10.60;99.90;;;;;;5091840;28;20035;-84
2021/10/09 03:21:56;;;;;;;44.55;30.90;;;10.60;99.90;;;;;;5075650;28;20063;-84
2021/10/09 03:24:22;;;;;;;43.75;31.83;;;10.60;99.90;;;;;;5058051;28;20032;-84
2021/10/09 03:26:47;;;;;;;42.75;30.00;;;10.60;99.90;;;;;;5109297;28;20031;-84
2021/10/09 03:29:13;;;;;;;43.50;30.92;;;10.60;99.90;;;;;;5091097;28;20052;-84
2021/10/09 03:31:39;;;;;;;44.80;30.45;;;10.60;99.90;;;;;;5108208;28;20126;-84
2021/10/09 03:34:04;;;;;;;47.25;31.05;;;10.60;99.90;;;;;;5092146;28;20134;-83
2021/10/09 03:36:30;;;;;;;47.78;30.15;;;10.60;99.90;;;;;;5108870;28;20103;-83
2021/10/09 03:38:56;;;;;;;39.25;28.92;;;10.60;99.90;;;;;;5057541;28;20118;-84
2021/10/09 03:41:22;;;;;;;46.40;31.40;;;10.60;99.90;;;;;;5073968;28;20028;-84
2021/10/09 03:43:47;;;;;;;42.78;29.63;;;10.60;99.90;;;;;;5074812;28;20036;-84
2021/10/09 03:46:19;;;;;;;42.53;30.00;;;10.60;99.90;;;;;;5091420;28;20048;-84
2021/10/09 03:49:04;;;;;;;43.25;30.98;;;10.60;99.90;;;;;;5060857;28;20428;-84
2021/10/09 03:54:14;;;;;;;47.15;30.50;;;10.60;99.90;;;;;;5094435;28;20074;-83
2021/10/09 03:56:40;;;;;;;44.15;29.77;;;10.60;99.90;;;;;;5088868;28;20071;-84
2021/10/09 03:59:06;;;;;;;43.75;31.45;;;10.50;99.90;;;;;;5108021;28;20517;-84
2021/10/09 04:01:32;;;;;;;42.10;29.83;;;10.60;99.90;;;;;;5127197;27;20123;-84
2021/10/09 04:03:58;;;;;;;45.67;31.73;;;10.50;99.90;;;;;;5057863;28;20035;-85
2021/10/09 04:06:23;;;;;;;43.05;30.05;;;10.60;99.90;;;;;;5072782;28;20043;-85
2021/10/09 04:08:49;;;;;;;45.35;31.58;;;10.60;99.90;;;;;;5091615;28;20047;-85
2021/10/09 04:11:15;;;;;;;48.10;30.38;;;10.60;99.90;;;;;;5074451;28;20432;-85
2021/10/09 04:13:41;;;;;;;55.83;32.80;;;10.60;99.90;;;;;;5090199;28;20044;-83
2021/10/09 04:16:07;;;;;;;70.22;33.03;;;10.70;99.90;;;;;;5090350;28;20046;-83
2021/10/09 04:18:32;;;;;;;64.10;32.88;;;10.70;99.90;;;;;;5074396;28;20475;-83
2021/10/09 04:20:58;;;;;;;63.35;32.85;;;10.70;99.90;;;;;;5058234;28;20097;-83
2021/10/09 04:23:24;;;;;;;84.85;33.00;;;10.70;99.90;;;;;;5091822;28;20122;-83
2021/10/09 04:25:50;;;;;;;100.85;34.25;;;10.70;99.90;;;;;;5108820;28;20096;-83
2021/10/09 04:28:15;;;;;;;66.07;31.35;;;10.70;99.90;;;;;;5073018;28;20456;-83
2021/10/09 04:30:41;;;;;;;71.20;32.17;;;10.70;99.90;;;;;;5107199;27;20044;-83
2021/10/09 04:33:07;;;;;;;93.95;32.53;;;10.70;99.90;;;;;;5107666;28;20039;-84
2021/10/09 04:35:32;;;;;;;86.93;33.15;;;10.70;99.90;;;;;;5141659;27;20053;-84
2021/10/09 04:38:03;;;;;;;76.60;32.58;;;10.80;99.90;;;;;;5124112;27;20058;-83
2021/10/09 04:40:29;;;;;;;84.70;31.88;;;10.70;99.90;;;;;;5106374;27;20046;-83
2021/10/09 04:42:55;;;;;;;51.35;29.20;;;10.80;99.90;;;;;;5072224;28;20047;-83
2021/10/09 04:45:21;;;;;;;62.50;30.38;;;10.70;99.90;;;;;;5073811;28;20023;-83
2021/10/09 04:47:47;;;;;;;54.33;27.42;;;10.70;99.90;;;;;;5089862;28;20051;-84
2021/10/09 04:50:12;;;;;;;66.65;30.20;;;10.70;99.90;;;;;;5074974;28;20123;-83
2021/10/09 04:52:38;;;;;;;73.70;30.73;;;10.70;99.90;;;;;;5075228;28;20460;-83
2021/10/09 04:55:04;;;;;;;60.90;31.48;;;10.80;99.90;;;;;;5074556;28;20130;-83
2021/10/09 04:57:30;;;;;;;55.35;29.90;;;10.80;99.90;;;;;;5057302;28;20110;-83
2021/10/09 04:59:56;;;;;;;72.60;31.10;;;10.70;99.90;;;;;;5143449;27;20047;-83
2021/10/09 05:02:21;;;;;;;75.40;30.67;;;10.70;99.90;;;;;;5126010;27;20036;-83
2021/10/09 05:04:47;;;;;;;64.72;32.15;;;10.70;99.90;;;;;;5091705;28;20038;-83
2021/10/09 05:07:13;;;;;;;62.03;30.30;;;10.70;99.90;;;;;;5143135;27;20485;-83
2021/10/09 05:09:38;;;;;;;68.18;30.65;;;10.70;99.90;;;;;;5115004;27;20040;-83
2021/10/09 05:12:07;;;;;;;71.13;30.67;;;10.70;99.90;;;;;;5088218;28;20098;-83
2021/10/09 05:14:33;;;;;;;100.47;33.80;;;10.70;99.90;;;;;;5104800;28;20048;-83
2021/10/09 05:16:59;;;;;;;106.63;32.58;;;10.70;99.90;;;;;;5087735;28;20419;-83
2021/10/09 05:19:25;;;;;;;65.05;30.20;;;10.70;99.90;;;;;;5105126;28;20032;-83
2021/10/09 05:21:50;;;;;;;67.80;30.15;;;10.70;99.90;;;;;;5088008;28;20640;-83
2021/10/09 05:24:16;;;;;;;93.18;32.05;;;10.70;99.90;;;;;;5087891;28;20039;-83
2021/10/09 05:26:42;;;;;;;93.38;30.40;;;10.70;99.90;;;;;;5070914;28;20126;-83
2021/10/09 05:29:14;;;;;;;85.63;31.02;;;10.70;99.90;;;;;;5102864;28;20085;-83
2021/10/09 05:31:40;;;;;;;100.03;31.45;;;10.70;99.90;;;;;;5091905;28;20084;-84
2021/10/09 05:34:06;;;;;;;73.90;31.60;;;10.70;99.90;;;;;;5108294;28;20047;-83
2021/10/09 05:36:31;;;;;;;92.30;32.63;;;10.70;99.90;;;;;;5091158;28;20039;-83
2021/10/09 05:38:57;;;;;;;72.85;29.38;;;10.70;99.90;;;;;;5091548;28;20035;-83
2021/10/09 05:41:23;;;;;;;55.95;30.88;;;10.70;99.90;;;;;;5090887;28;20049;-83
2021/10/09 05:43:49;;;;;;;58.88;30.67;;;10.70;99.90;;;;;;5074145;28;20039;-83
2021/10/09 05:46:16;;;;;;;91.40;32.97;;;10.70;99.90;;;;;;5090725;28;20047;-83
2021/10/09 05:48:42;;;;;;;77.88;31.67;;;10.70;99.90;;;;;;5074130;28;20084;-83
2021/10/09 05:51:21;;;;;;;45.13;28.73;;;10.70;99.90;;;;;;5074013;28;20051;-83
2021/10/09 05:54:08;;;;;;;63.03;30.48;;;10.70;99.90;;;;;;5092877;28;20122;-83
2021/10/09 07:00:33;;;;;;;69.05;27.55;;;10.60;99.90;;;;;;5073495;28;20036;-84
2021/10/09 07:02:59;;;;;;;50.35;27.30;;;10.60;99.90;;;;;;5105226;28;20046;-84
2021/10/09 07:05:25;;;;;;;76.90;27.08;;;10.60;99.90;;;;;;5074206;28;20043;-84
2021/10/09 07:07:52;;;;;;;60.35;26.23;;;10.60;99.90;;;;;;5092734;28;20048;-84
2021/10/09 07:10:17;;;;;;;100.35;28.42;;;10.60;99.90;;;;;;5093218;28;20118;-84
2021/10/09 07:12:43;;;;;;;65.53;26.98;;;10.60;99.90;;;;;;5109866;28;20126;-84
2021/10/09 07:15:11;;;;;;;69.45;26.40;;;10.60;99.90;;;;;;5092176;28;20391;-84
2021/10/09 07:17:37;;;;;;;55.03;26.73;;;10.60;99.90;;;;;;5073323;28;20036;-84
2021/10/09 07:20:06;;;;;;;77.80;27.73;;;10.60;99.90;;;;;;5092144;28;20040;-84
2021/10/09 07:22:32;;;;;;;56.65;26.83;;;10.60;99.90;;;;;;5109338;28;20067;-84
2021/10/09 07:24:58;;;;;;;49.83;26.30;;;10.60;99.90;;;;;;5073566;28;20101;-84
2021/10/09 07:27:24;;;;;;;53.42;26.80;;;10.60;99.90;;;;;;5092857;28;20437;-84
2021/10/09 07:29:50;;;;;;;41.17;24.90;;;10.60;99.90;;;;;;5075194;28;20134;-84
2021/10/09 07:32:16;;;;;;;43.40;25.63;;;10.60;99.90;;;;;;5056313;28;20040;-84
2021/10/09 07:34:41;;;;;;;48.80;24.73;;;10.60;99.90;;;;;;5091719;28;20035;-84
2021/10/09 07:37:07;;;;;;;54.13;25.20;;;10.60;99.90;;;;;;5074133;28;20070;-84
2021/10/09 07:39:33;;;;;;;49.10;25.30;;;10.60;99.90;;;;;;5058940;28;20086;-84
2021/10/09 07:42:00;;;;;;;42.05;24.98;;;10.60;99.90;;;;;;5091746;28;20038;-85
2021/10/09 07:44:26;;;;;;;38.92;25.58;;;10.60;99.90;;;;;;5091928;28;20071;-87
2021/10/09 07:46:52;;;;;;;56.08;25.70;;;10.70;99.90;;;;;;5075268;28;20073;-88
2021/10/09 07:49:17;;;;;;;40.22;26.25;;;10.70;99.90;;;;;;5109280;28;20081;-88
2021/10/09 07:51:43;;;;;;;35.17;23.85;;;10.70;99.90;;;;;;5109510;28;20114;-88
2021/10/09 07:54:10;;;;;;;46.00;25.30;;;10.70;99.90;;;;;;5109004;28;20054;-88
2021/10/09 07:56:36;;;;;;;35.10;25.15;;;10.70;99.90;;;;;;5072568;28;20069;-88
2021/10/09 07:59:02;;;;;;;46.55;25.05;;;10.70;99.90;;;;;;5108635;28;20099;-87
2021/10/09 08:01:27;;;;;;;32.22;25.05;;;10.80;99.90;;;;;;5086995;28;20074;-84
2021/10/09 08:03:53;;;;;;;36.05;25.27;;;10.80;99.90;;;;;;5091746;28;20032;-83
2021/10/09 08:06:19;;;;;;;39.30;24.45;;;10.80;99.90;;;;;;5074987;28;20444;-85
2021/10/09 08:08:44;;;;;;;33.85;24.85;;;10.80;99.90;;;;;;5074756;28;20043;-85
2021/10/09 08:11:10;;;;;;;41.65;24.55;;;10.80;99.90;;;;;;5091487;28;20044;-85
2021/10/09 08:13:36;;;;;;;34.15;25.17;;;10.80;99.90;;;;;;5088558;28;20047;-85
2021/10/09 08:16:05;;;;;;;42.63;25.38;;;10.90;99.90;;;;;;5074628;28;20040;-85
2021/10/09 08:18:31;;;;;;;39.17;27.45;;;10.80;99.90;;;;;;5091752;28;20043;-85
2021/10/09 08:21:03;;;;;;;35.50;26.92;;;10.80;99.90;;;;;;5088933;28;20550;-85
2021/10/09 08:23:37;;;;;;;42.45;26.40;;;10.80;99.90;;;;;;5108609;28;20050;-85
2021/10/09 08:36:52;;;;;;;43.58;28.20;;;10.90;99.90;;;;;;5106641;28;20059;-88
2021/10/09 08:39:18;;;;;;;40.00;28.48;;;10.90;99.90;;;;;;5082585;27;20043;-87
2021/10/09 08:41:45;;;;;;;41.28;28.85;;;10.90;99.90;;;;;;5108317;28;20380;-87
2021/10/09 08:44:10;;;;;;;44.25;28.63;;;10.90;99.90;;;;;;5074327;28;20156;-84
2021/10/09 08:46:36;;;;;;;36.85;27.08;;;11.00;99.90;;;;;;5108789;27;20636;-84
2021/10/09 08:49:02;;;;;;;49.33;30.52;;;11.00;99.90;;;;;;5088519;28;20039;-84
2021/10/09 08:51:28;;;;;;;46.55;30.33;;;11.00;99.90;;;;;;5070931;28;20489;-84
2021/10/09 08:54:03;;;;;;;48.67;32.50;;;11.00;99.90;;;;;;5088488;28;20040;-84
2021/10/09 08:56:35;;;;;;;53.83;32.67;;;11.00;99.90;;;;;;5088101;28;20063;-84
2021/10/09 08:59:34;;;;;;;53.30;32.55;;;11.00;99.90;;;;;;5071301;28;20071;-83
2021/10/09 09:02:19;;;;;;;48.30;33.50;;;11.10;99.90;;;;;;5061368;28;20052;-84
2021/10/09 09:27:29;;;;;;;67.03;38.45;;;11.40;99.90;;;;;;5093896;27;20054;-84
2021/10/09 09:41:18;;;;;;;64.45;37.75;;;11.60;99.90;;;;;;5079303;28;20082;-84
2021/10/09 09:43:44;;;;;;;64.18;37.45;;;11.70;99.90;;;;;;5101650;28;20122;-84
2021/10/09 09:46:15;;;;;;;61.75;37.05;;;11.70;99.90;;;;;;5090949;28;20122;-84
2021/10/09 09:48:46;;;;;;;56.08;34.92;;;11.90;99.90;;;;;;5107264;28;20517;-84
2021/10/09 09:51:14;;;;;;;59.50;32.63;;;11.90;99.90;;;;;;5087179;28;20566;-84
2021/10/09 09:53:42;;;;;;;54.95;35.13;;;12.00;99.90;;;;;;5070398;28;20060;-84
2021/10/09 09:56:09;;;;;;;57.75;35.15;;;12.00;99.90;;;;;;5053449;28;20044;-84
2021/10/09 09:58:40;;;;;;;63.20;37.28;;;12.00;99.90;;;;;;5087101;28;20044;-83
2021/10/09 10:01:08;;;;;;;57.45;34.08;;;12.00;99.90;;;;;;5100459;28;20039;-85
2021/10/09 10:03:35;;;;;;;58.22;36.92;;;12.00;99.90;;;;;;5072523;28;20050;-85
2021/10/09 10:06:05;;;;;;;59.67;36.28;;;12.00;99.90;;;;;;5087437;28;20028;-86
2021/10/09 10:08:32;;;;;;;61.15;36.72;;;12.00;99.90;;;;;;5090015;28;20043;-86
2021/10/09 10:11:00;;;;;;;55.42;32.78;;;12.10;99.90;;;;;;5106852;28;20036;-85
2021/10/09 10:13:28;;;;;;;54.97;33.60;;;12.10;99.90;;;;;;5090528;28;20105;-85
2021/10/09 10:15:56;;;;;;;63.53;36.88;;;12.10;99.90;;;;;;5107146;28;20035;-85
2021/10/09 10:18:43;;;;;;;60.30;33.22;;;12.20;99.90;;;;;;5090431;28;20051;-84
2021/10/09 10:21:09;;;;;;;53.17;32.15;;;12.20;99.90;;;;;;5090520;28;20039;-84
2021/10/09 10:23:38;;;;;;;63.00;35.63;;;12.20;99.90;;;;;;5073480;28;20126;-84
2021/10/09 10:26:19;;;;;;;53.83;34.97;;;12.20;99.90;;;;;;5090462;28;20044;-85
2021/10/09 10:28:45;;;;;;;55.50;35.95;;;12.30;99.90;;;;;;5090841;28;20046;-85
2021/10/09 10:31:11;;;;;;;53.17;35.75;;;12.30;99.90;;;;;;5073807;28;20069;-84
2021/10/09 10:33:49;;;;;;;54.25;34.00;;;12.40;99.90;;;;;;5090692;28;20048;-85
2021/10/09 10:36:34;;;;;;;61.33;35.72;;;12.40;99.90;;;;;;5107040;28;20600;-84
2021/10/09 10:39:00;;;;;;;52.60;33.70;;;12.50;99.90;;;;;;5126566;27;20054;-85
2021/10/09 10:41:44;;;;;;;57.08;32.90;;;12.50;99.90;;;;;;5127560;27;20027;-84
2021/10/09 10:47:51;;;;;;;52.50;33.17;;;12.60;99.90;;;;;;5145033;27;20114;-85
2021/10/09 10:53:31;;;;;;;45.95;31.40;;;12.70;99.90;;;;;;5109274;28;20053;-85
2021/10/09 10:56:07;;;;;;;51.08;30.25;;;12.70;99.90;;;;;;5109590;28;20471;-85
2021/10/09 10:58:34;;;;;;;50.38;27.83;;;12.80;99.90;;;;;;5110895;28;20040;-85
2021/10/09 11:01:16;;;;;;;44.38;28.88;;;12.80;99.90;;;;;;5110903;28;20051;-85
2021/10/09 11:04:00;;;;;;;45.67;28.77;;;12.80;99.90;;;;;;5145429;27;20043;-85
2021/10/09 11:06:27;;;;;;;46.72;28.85;;;12.90;99.90;;;;;;5111251;28;20386;-85
2021/10/09 11:08:56;;;;;;;42.05;30.15;;;12.90;99.90;;;;;;5110429;28;20062;-85
2021/10/09 11:11:45;;;;;;;43.25;28.38;;;12.90;99.90;;;;;;5093795;28;20050;-85
2021/10/09 11:14:21;;;;;;;37.03;25.23;;;13.00;99.90;;;;;;5144945;27;20148;-85
2021/10/09 11:16:48;;;;;;;43.13;25.98;;;13.10;99.90;;;;;;5093868;28;20036;-85
2021/10/09 11:19:13;;;;;;;34.97;23.13;;;13.10;99.90;;;;;;5128024;27;20039;-84
2021/10/09 11:21:53;;;;;;;38.78;24.38;;;13.10;99.90;;;;;;5110664;28;20509;-85
2021/10/09 11:24:18;;;;;;;42.58;24.73;;;13.20;99.90;;;;;;5093517;28;20440;-84
2021/10/09 11:26:53;;;;;;;33.67;24.60;;;13.20;99.90;;;;;;5109587;28;20138;-85
2021/10/09 11:29:19;;;;;;;40.63;26.73;;;13.30;99.90;;;;;;5108944;28;20494;-85
2021/10/09 11:31:45;;;;;;;38.10;26.05;;;13.30;99.90;;;;;;5110434;27;20035;-85
2021/10/09 11:34:10;;;;;;;38.55;25.85;;;13.30;99.90;;;;;;5088331;28;20406;-85
2021/10/09 11:36:39;;;;;;;37.92;26.70;;;13.30;99.90;;;;;;5071292;28;20693;-85
2021/10/09 11:39:11;;;;;;;37.30;24.55;;;13.40;99.90;;;;;;5088435;28;20449;-85
2021/10/09 11:41:38;;;;;;;42.78;26.63;;;13.40;99.90;;;;;;5079356;28;20270;-85
2021/10/09 11:44:29;;;;;;;46.33;24.55;;;13.40;99.90;;;;;;5091130;28;20042;-85
2021/10/09 11:55:36;;;;;;;33.22;24.10;;;13.50;99.90;;;;;;5109616;28;20054;-84
2021/10/09 11:58:04;;;;;;;40.22;25.58;;;13.60;99.90;;;;;;5088399;28;20044;-85
2021/10/09 12:00:31;;;;;;;34.50;24.88;;;13.60;99.90;;;;;;5093368;28;20126;-85
2021/10/09 12:03:26;;;;;;;39.67;24.75;;;13.60;99.90;;;;;;5092615;28;20081;-85
2021/10/09 12:05:54;;;;;;;39.13;23.88;;;13.60;99.90;;;;;;5081490;28;20047;-85
2021/10/09 12:08:29;;;;;;;44.03;26.63;;;13.60;99.90;;;;;;5108934;28;20047;-85
2021/10/09 12:11:13;;;;;;;41.53;25.48;;;13.70;99.90;;;;;;5109581;28;20050;-85
2021/10/09 12:13:56;;;;;;;38.58;23.75;;;13.70;99.90;;;;;;5109790;28;20050;-85
2021/10/09 12:16:24;;;;;;;32.67;23.52;;;13.70;99.90;;;;;;5092511;28;20138;-85
2021/10/09 12:18:54;;;;;;;34.17;23.98;;;13.80;99.90;;;;;;5092689;28;20444;-85
2021/10/09 12:21:22;;;;;;;35.17;24.77;;;13.80;99.90;;;;;;5076336;28;20039;-85
2021/10/09 12:23:48;;;;;;;36.53;26.27;;;13.80;99.90;;;;;;5092127;28;20444;-85
2021/10/09 12:26:16;;;;;;;35.35;24.92;;;13.90;99.90;;;;;;5054036;28;20556;-85
2021/10/09 12:29:04;;;;;;;39.20;24.33;;;13.90;99.90;;;;;;5123004;27;20526;-85
2021/10/09 12:31:34;;;;;;;49.30;25.30;;;13.90;99.90;;;;;;5089368;28;20048;-85
2021/10/09 12:34:01;;;;;;;36.67;24.88;;;13.90;99.90;;;;;;5118976;27;20130;-85
2021/10/09 12:36:32;;;;;;;38.30;25.15;;;14.00;99.90;;;;;;5141970;27;20046;-85
2021/10/09 12:39:18;;;;;;;34.58;25.73;;;14.00;99.90;;;;;;5141739;27;20043;-85
2021/10/09 12:41:44;;;;;;;39.60;25.25;;;14.00;99.90;;;;;;5107490;28;20043;-85
2021/10/09 12:44:09;;;;;;;36.80;24.85;;;14.00;99.90;;;;;;5090965;28;20092;-85
2021/10/09 12:46:35;;;;;;;39.00;25.60;;;14.00;99.90;;;;;;5091663;28;20075;-85
2021/10/09 12:49:00;;;;;;;39.25;25.85;;;14.10;99.90;;;;;;5057857;28;20050;-85
2021/10/09 12:51:26;;;;;;;42.92;27.70;;;14.10;99.90;;;;;;5058286;28;20043;-86
2021/10/09 12:53:55;;;;;;;39.72;25.20;;;14.10;99.90;;;;;;5091915;28;20043;-85
2021/10/09 12:56:21;;;;;;;41.85;26.48;;;14.10;99.90;;;;;;5091780;28;20062;-85
2021/10/09 12:58:46;;;;;;;44.45;27.08;;;14.20;99.90;;;;;;5075224;28;20039;-86
2021/10/09 13:01:13;;;;;;;38.63;26.27;;;14.10;99.90;;;;;;5091428;28;20078;-85
2021/10/09 13:03:38;;;;;;;41.63;26.17;;;14.10;99.90;;;;;;5091180;28;20116;-85
2021/10/09 13:06:04;;;;;;;39.40;26.15;;;14.20;99.90;;;;;;5074750;28;20118;-85
2021/10/09 13:08:30;;;;;;;36.58;26.65;;;14.20;99.90;;;;;;5108977;28;20052;-85
2021/10/09 13:10:58;;;;;;;43.40;25.85;;;14.20;99.90;;;;;;5092016;28;20478;-85
2021/10/09 13:13:24;;;;;;;42.67;26.05;;;14.30;99.90;;;;;;5091792;28;20039;-86
2021/10/09 13:15:50;;;;;;;35.63;25.77;;;14.30;99.90;;;;;;5091524;28;20089;-85
2021/10/09 13:18:15;;;;;;;38.92;25.98;;;14.30;99.90;;;;;;5091130;28;20116;-85
2021/10/09 13:20:41;;;;;;;36.85;24.55;;;14.30;99.90;;;;;;5108290;28;20035;-85
2021/10/09 13:23:07;;;;;;;40.53;25.98;;;14.30;99.90;;;;;;5108027;28;20122;-85
2021/10/09 13:25:33;;;;;;;43.25;26.30;;;14.40;99.90;;;;;;5091217;28;20031;-85
2021/10/09 13:27:59;;;;;;;37.10;25.70;;;14.30;99.90;;;;;;5125044;27;20091;-85
2021/10/09 13:30:25;;;;;;;39.88;26.17;;;14.40;99.90;;;;;;5125617;27;20043;-86
2021/10/09 13:32:51;;;;;;;36.55;25.17;;;14.30;99.90;;;;;;5108354;28;20047;-85
2021/10/09 13:35:17;;;;;;;35.42;24.83;;;14.40;99.90;;;;;;5087041;28;20044;-86
2021/10/09 13:37:56;;;;;;;41.53;25.17;;;14.40;99.90;;;;;;5103288;28;20159;-85
2021/10/09 13:40:22;;;;;;;35.60;25.27;;;14.30;99.90;;;;;;5072668;28;20044;-86
2021/10/09 13:42:47;;;;;;;38.33;25.23;;;14.40;99.90;;;;;;5122536;27;20406;-85
2021/10/09 13:45:14;;;;;;;40.10;25.05;;;14.30;99.90;;;;;;5141674;27;20035;-86
2021/10/09 13:47:40;;;;;;;44.33;25.08;;;14.40;99.90;;;;;;5090952;28;20044;-85
2021/10/09 13:50:06;;;;;;;38.78;24.70;;;14.40;99.90;;;;;;5116029;27;20039;-85
2021/10/09 13:52:32;;;;;;;37.60;24.67;;;14.40;99.90;;;;;;5090992;28;20054;-85
2021/10/09 13:54:58;;;;;;;34.80;24.35;;;14.40;99.90;;;;;;5090738;28;20060;-85
2021/10/09 13:57:23;;;;;;;34.17;24.02;;;14.30;99.90;;;;;;5090547;28;20482;-86
2021/10/09 13:59:49;;;;;;;37.28;23.70;;;14.30;99.90;;;;;;5142221;27;20545;-85
2021/10/09 14:02:15;;;;;;;38.40;25.42;;;14.30;99.90;;;;;;5125125;28;20047;-85
2021/10/09 14:04:40;;;;;;;43.58;25.92;;;14.30;99.90;;;;;;5091201;28;20397;-86
2021/10/09 14:07:06;;;;;;;37.90;24.15;;;14.30;99.90;;;;;;5074123;28;20043;-85
2021/10/09 14:09:32;;;;;;;37.75;24.80;;;14.30;99.90;;;;;;5124948;28;20043;-85
2021/10/09 14:11:58;;;;;;;32.08;22.38;;;14.30;99.90;;;;;;5089332;28;20042;-85
2021/10/09 14:14:27;;;;;;;31.85;22.50;;;14.30;99.90;;;;;;5098236;28;20085;-84
2021/10/09 14:16:53;;;;;;;36.47;21.50;;;14.30;99.90;;;;;;5077458;28;20036;-85
2021/10/09 14:19:19;;;;;;;40.72;22.63;;;14.30;99.90;;;;;;5094197;28;20069;-85
2021/10/09 14:21:45;;;;;;;37.70;22.30;;;14.30;99.90;;;;;;5094259;28;20031;-81
2021/10/09 14:24:10;;;;;;;31.73;22.58;;;14.30;99.90;;;;;;5094521;28;20075;-82
2021/10/09 14:26:36;;;;;;;38.40;23.05;;;14.20;99.90;;;;;;5094693;28;20046;-82
2021/10/09 14:29:02;;;;;;;37.22;24.17;;;14.20;99.90;;;;;;5093266;28;20131;-82
2021/10/09 14:31:29;;;;;;;35.38;22.80;;;14.20;99.90;;;;;;5090347;28;20043;-82
2021/10/09 14:33:55;;;;;;;31.90;22.85;;;14.20;99.90;;;;;;5092740;28;20047;-82
2021/10/09 14:36:21;;;;;;;29.92;20.98;;;14.20;99.90;;;;;;5092218;28;20108;-82
2021/10/09 14:38:46;;;;;;;46.03;22.20;;;14.20;99.90;;;;;;5109450;28;20039;-82
2021/10/09 14:41:14;;;;;;;32.75;22.83;;;14.10;99.90;;;;;;5081094;28;20028;-83
2021/10/09 14:43:40;;;;;;;36.55;23.15;;;14.10;99.90;;;;;;5072003;28;20596;-84
2021/10/09 14:48:52;;;;;;;34.95;22.60;;;14.10;99.90;;;;;;5094451;28;20513;-85
2021/10/09 15:02:26;;;;;;;37.50;23.50;;;14.10;99.90;;;;;;5094855;28;20050;-87